Jian Guo Hai — VRPY2 — position and weather

sailwx.info

Track history (hours):
 
Tides and Currents Weather Stations Pressure Air Temp Water Temp Dewpoint Dewpoint Depression Visibility Wind Speed Wind Dir Waves Ship Positions

Jian Guo Hai

Last reported at 2018-Jan-20 08:29 UTC. Time now 2018-Jan-20 09:00 UTC.
Position N 09°17' W 079°55'.

Length 180 m; draft 10.8 m.

Type: Cargo ship. MMSI: 477913100.

Date/timePositionNaut miles runAvg speedWind from/ knotsBaromVisibWave heightAir tempDewpointWater temp
2018-Jan-20 08:29N 09°17' W 079°55'1 1.8
2018-Jan-20 08:00N 09°18' W 079°55'2 3.2
2018-Jan-20 07:31N 09°19' W 079°55'3 5.6
2018-Jan-20 07:00N 09°22' W 079°56'0 0.3
2018-Jan-20 06:28N 09°22' W 079°56'0 0.0
2018-Jan-20 05:58N 09°22' W 079°56'0 0.0
2018-Jan-20 05:28N 09°22' W 079°56'0 0.1
2018-Jan-20 04:58N 09°22' W 079°56'0 0.0
2018-Jan-20 04:28N 09°22' W 079°56'0 0.0
2018-Jan-20 03:58N 09°22' W 079°56'0 0.0
2018-Jan-20 03:28N 09°22' W 079°56'0 0.0
2018-Jan-20 02:58N 09°22' W 079°56'0 0.0
2018-Jan-20 02:28N 09°22' W 079°56'0 0.0
2018-Jan-20 01:58N 09°22' W 079°56'0 0.0
2018-Jan-20 01:28N 09°22' W 079°56'0 0.0
2018-Jan-20 00:58N 09°22' W 079°56'0 0.1
2018-Jan-20 00:28N 09°22' W 079°56'0 0.2
2018-Jan-19 23:58N 09°22' W 079°56'0 0.4
2018-Jan-19 23:30N 09°22' W 079°55'3 6.0
2018-Jan-19 23:00N 09°25' W 079°55'1 2.9
2018-Jan-19 22:30N 09°24' W 079°56'0 0.1
2018-Jan-19 21:58N 09°24' W 079°57'0 0.0
2018-Jan-19 21:28N 09°24' W 079°56'0 0.0
2018-Jan-19 20:58N 09°24' W 079°56'0 0.0
2018-Jan-19 20:28N 09°24' W 079°56'0 0.1
2018-Jan-19 19:58N 09°24' W 079°56'0 0.1
2018-Jan-19 19:28N 09°24' W 079°56'0 0.1
2018-Jan-19 18:58N 09°24' W 079°57'0 0.0
2018-Jan-19 18:28N 09°24' W 079°57'0 0.0
2018-Jan-19 17:58N 09°24' W 079°57'0 0.0
2018-Jan-19 17:28N 09°24' W 079°57'0 0.0
2018-Jan-19 16:58N 09°24' W 079°57'0 0.1
2018-Jan-19 16:25N 09°24' W 079°56'0 0.1
2018-Jan-19 15:55N 09°24' W 079°56'0 0.1
2018-Jan-19 15:28N 09°24' W 079°56'0 0.0
2018-Jan-19 14:58N 09°24' W 079°56'0 0.0
2018-Jan-19 14:28N 09°24' W 079°56'0 0.0
2018-Jan-19 13:58N 09°24' W 079°56'0 0.0
2018-Jan-19 13:28N 09°24' W 079°56'0 0.0
2018-Jan-19 12:58N 09°24' W 079°56'0 0.0
2018-Jan-19 12:28N 09°24' W 079°56'0 0.0
2018-Jan-19 11:58N 09°24' W 079°56'0 0.0
2018-Jan-19 11:22N 09°24' W 079°56'0 0.0
2018-Jan-19 10:58N 09°24' W 079°56'0 0.0
2018-Jan-19 10:28N 09°24' W 079°56'0 0.0
2018-Jan-19 09:58N 09°24' W 079°56'0 0.0
2018-Jan-19 09:28N 09°24' W 079°56'0 0.0
2018-Jan-19 08:58N 09°24' W 079°56'0 0.0
2018-Jan-19 08:28N 09°24' W 079°56'0 0.0
2018-Jan-19 07:58N 09°24' W 079°56'0 0.0
2018-Jan-19 07:28N 09°24' W 079°56'0 0.0
2018-Jan-19 06:58N 09°24' W 079°56'0 0.0
2018-Jan-19 06:28N 09°24' W 079°56'0 0.0
2018-Jan-19 05:58N 09°24' W 079°56'0 0.0
2018-Jan-19 05:28N 09°24' W 079°56'0 0.0
2018-Jan-19 04:58N 09°24' W 079°56'0 0.0
2018-Jan-19 03:07N 09°24' W 079°56'0 0.1
2018-Jan-19 02:58N 09°24' W 079°56'0 0.1
2018-Jan-19 02:28N 09°24' W 079°56'0 0.0
2018-Jan-19 01:58N 09°24' W 079°56'0 0.0
2018-Jan-19 01:28N 09°24' W 079°56'0 0.0
2018-Jan-19 00:58N 09°24' W 079°56'0 0.0
2018-Jan-19 00:25N 09°24' W 079°56'0 0.1
2018-Jan-18 23:58N 09°24' W 079°56'0 0.1
2018-Jan-18 23:30N 09°24' W 079°57'3 5.3
2018-Jan-18 23:00N 09°27' W 079°55'5 9.9
2018-Jan-18 22:31N 09°31' W 079°54'611.9
2018-Jan-18 22:00N 09°37' W 079°53'  
Track history (hours):
 
Tides and Currents Weather Stations Pressure Air Temp Water Temp Dewpoint Dewpoint Depression Visibility Wind Speed Wind Dir Waves Ship Positions

Jian Guo Hai

Last reported at 2018-Jan-20 08:29 UTC. Time now 2018-Jan-20 09:00 UTC.
Position N 09°17' W 079°55'.

Length 180 m; draft 10.8 m.

Type: Cargo ship. MMSI: 477913100.

Date/timePositionNaut miles runAvg speedWind from/ knotsBaromVisibWave heightAir tempDewpointWater temp
2018-Jan-20 08:29N 09°17' W 079°55'1 1.8
2018-Jan-20 08:00N 09°18' W 079°55'2 3.2
2018-Jan-20 07:31N 09°19' W 079°55'3 5.6
2018-Jan-20 07:00N 09°22' W 079°56'0 0.3
2018-Jan-20 06:28N 09°22' W 079°56'0 0.0
2018-Jan-20 05:58N 09°22' W 079°56'0 0.0
2018-Jan-20 05:28N 09°22' W 079°56'0 0.1
2018-Jan-20 04:58N 09°22' W 079°56'0 0.0
2018-Jan-20 04:28N 09°22' W 079°56'0 0.0
2018-Jan-20 03:58N 09°22' W 079°56'0 0.0
2018-Jan-20 03:28N 09°22' W 079°56'0 0.0
2018-Jan-20 02:58N 09°22' W 079°56'0 0.0
2018-Jan-20 02:28N 09°22' W 079°56'0 0.0
2018-Jan-20 01:58N 09°22' W 079°56'0 0.0
2018-Jan-20 01:28N 09°22' W 079°56'0 0.0
2018-Jan-20 00:58N 09°22' W 079°56'0 0.1
2018-Jan-20 00:28N 09°22' W 079°56'0 0.2
2018-Jan-19 23:58N 09°22' W 079°56'0 0.4
2018-Jan-19 23:30N 09°22' W 079°55'3 6.0
2018-Jan-19 23:00N 09°25' W 079°55'1 2.9
2018-Jan-19 22:30N 09°24' W 079°56'0 0.1
2018-Jan-19 21:58N 09°24' W 079°57'0 0.0
2018-Jan-19 21:28N 09°24' W 079°56'0 0.0
2018-Jan-19 20:58N 09°24' W 079°56'0 0.0
2018-Jan-19 20:28N 09°24' W 079°56'0 0.1
2018-Jan-19 19:58N 09°24' W 079°56'0 0.1
2018-Jan-19 19:28N 09°24' W 079°56'0 0.1
2018-Jan-19 18:58N 09°24' W 079°57'0 0.0
2018-Jan-19 18:28N 09°24' W 079°57'0 0.0
2018-Jan-19 17:58N 09°24' W 079°57'0 0.0
2018-Jan-19 17:28N 09°24' W 079°57'0 0.0
2018-Jan-19 16:58N 09°24' W 079°57'0 0.1
2018-Jan-19 16:25N 09°24' W 079°56'0 0.1
2018-Jan-19 15:55N 09°24' W 079°56'0 0.1
2018-Jan-19 15:28N 09°24' W 079°56'0 0.0
2018-Jan-19 14:58N 09°24' W 079°56'0 0.0
2018-Jan-19 14:28N 09°24' W 079°56'0 0.0
2018-Jan-19 13:58N 09°24' W 079°56'0 0.0
2018-Jan-19 13:28N 09°24' W 079°56'0 0.0
2018-Jan-19 12:58N 09°24' W 079°56'0 0.0
2018-Jan-19 12:28N 09°24' W 079°56'0 0.0
2018-Jan-19 11:58N 09°24' W 079°56'0 0.0
2018-Jan-19 11:22N 09°24' W 079°56'0 0.0
2018-Jan-19 10:58N 09°24' W 079°56'0 0.0
2018-Jan-19 10:28N 09°24' W 079°56'0 0.0
2018-Jan-19 09:58N 09°24' W 079°56'0 0.0
2018-Jan-19 09:28N 09°24' W 079°56'0 0.0
2018-Jan-19 08:58N 09°24' W 079°56'0 0.0
2018-Jan-19 08:28N 09°24' W 079°56'0 0.0
2018-Jan-19 07:58N 09°24' W 079°56'0 0.0
2018-Jan-19 07:28N 09°24' W 079°56'0 0.0
2018-Jan-19 06:58N 09°24' W 079°56'0 0.0
2018-Jan-19 06:28N 09°24' W 079°56'0 0.0
2018-Jan-19 05:58N 09°24' W 079°56'0 0.0
2018-Jan-19 05:28N 09°24' W 079°56'0 0.0
2018-Jan-19 04:58N 09°24' W 079°56'0 0.0
2018-Jan-19 03:07N 09°24' W 079°56'0 0.1
2018-Jan-19 02:58N 09°24' W 079°56'0 0.1
2018-Jan-19 02:28N 09°24' W 079°56'0 0.0
2018-Jan-19 01:58N 09°24' W 079°56'0 0.0
2018-Jan-19 01:28N 09°24' W 079°56'0 0.0
2018-Jan-19 00:58N 09°24' W 079°56'0 0.0
2018-Jan-19 00:25N 09°24' W 079°56'0 0.1
2018-Jan-18 23:58N 09°24' W 079°56'0 0.1
2018-Jan-18 23:30N 09°24' W 079°57'3 5.3
2018-Jan-18 23:00N 09°27' W 079°55'5 9.9
2018-Jan-18 22:31N 09°31' W 079°54'611.9
2018-Jan-18 22:00N 09°37' W 079°53'  

Dump ship's entire track history